Time;durP1;ratioP1;P1;durP2;ratioP2;P2;SDS_P1;SDS_P2;PMS_P1;PMS_P2;Temp;Humidity;BMP_temperature;BMP_pressure;BME280_temperature;BME280_humidity;BME280_pressure;Samples;Min_cycle;Max_cycle;Signal;HPM_P1;HPM_P2
2022/10/09 00:00:16;;;;;;;;;;;22.30;89.50;;;;;;5115899;27;19907;-61
2022/10/09 00:02:41;;;;;;;;;;;22.30;89.60;;;;;;5121322;27;20412;-45
2022/10/09 00:05:07;;;;;;;;;;;22.30;89.60;;;;;;5115988;28;19908;-46
2022/10/09 00:07:32;;;;;;;;;;;22.30;89.60;;;;;;5118833;27;19920;-46
2022/10/09 00:09:58;;;;;;;;;;;22.30;89.60;;;;;;5116543;28;19969;-47
2022/10/09 00:12:23;;;;;;;;;;;22.30;89.60;;;;;;5116223;27;20259;-46
2022/10/09 00:14:48;;;;;;;;;;;22.30;89.50;;;;;;5120202;27;19919;-47
2022/10/09 00:17:14;;;;;;;;;;;22.30;89.50;;;;;;5115965;28;19912;-46
2022/10/09 00:19:39;;;;;;;;;;;22.20;89.40;;;;;;5115793;28;19918;-47
2022/10/09 00:22:05;;;;;;;;;;;22.20;89.50;;;;;;5116510;28;20290;-47
2022/10/09 00:24:30;;;;;;;;;;;22.20;89.40;;;;;;5115128;28;20011;-50
2022/10/09 00:26:56;;;;;;;;;;;22.20;89.40;;;;;;5098298;28;19914;-48
2022/10/09 00:29:21;;;;;;;;;;;22.20;89.40;;;;;;5115749;27;20391;-46
2022/10/09 00:31:48;;;;;;;;;;;22.20;89.40;;;;;;5117712;27;19955;-45
2022/10/09 00:34:13;;;;;;;;;;;22.20;89.40;;;;;;5116953;27;19912;-47
2022/10/09 00:36:39;;;;;;;;;;;22.20;89.40;;;;;;5114879;27;19911;-46
2022/10/09 00:39:05;;;;;;;;;;;22.20;89.50;;;;;;5119068;27;19960;-50
2022/10/09 00:41:30;;;;;;;;;;;22.20;90.00;;;;;;5116466;28;19908;-47
2022/10/09 00:44:00;;;;;;;;;;;22.20;89.40;;;;;;5114645;28;19911;-47
2022/10/09 00:46:35;;;;;;;;;;;22.20;89.40;;;;;;5115334;28;20378;-45
2022/10/09 00:49:32;;;;;;;;;;;22.20;89.40;;;;;;5115314;28;19969;-49
2022/10/09 00:52:00;;;;;;;;;;;22.20;89.50;;;;;;5069955;28;19920;-46
2022/10/09 00:54:28;;;;;;;;;;;22.20;89.50;;;;;;5115419;28;19972;-46
2022/10/09 00:56:53;;;;;;;;;;;22.20;89.50;;;;;;5115257;27;19911;-46
2022/10/09 00:59:19;;;;;;;;;;;22.20;89.50;;;;;;5113391;27;20369;-46
2022/10/09 01:01:44;;;;;;;;;;;22.20;89.40;;;;;;5118225;27;19943;-46
2022/10/09 01:04:10;;;;;;;;;;;22.20;89.50;;;;;;5121542;27;19953;-46
2022/10/09 01:06:54;;;;;;;;;;;22.20;89.50;;;;;;5115546;27;19988;-45
2022/10/09 01:09:27;;;;;;;;;;;22.20;89.50;;;;;;5104534;28;19920;-45
2022/10/09 01:12:02;;;;;;;;;;;22.20;89.50;;;;;;5114863;28;19912;-55
2022/10/09 01:14:30;;;;;;;;;;;22.20;89.60;;;;;;5114653;27;19911;-48
2022/10/09 01:17:00;;;;;;;;;;;22.20;89.50;;;;;;5114527;27;19911;-48
2022/10/09 01:19:44;;;;;;;;;;;22.20;89.50;;;;;;5116917;27;20312;-49
2022/10/09 01:22:25;;;;;;;;;;;22.20;89.50;;;;;;5114558;28;19938;-48
2022/10/09 01:24:55;;;;;;;;;;;22.20;89.50;;;;;;5096684;28;20281;-46
2022/10/09 01:27:23;;;;;;;;;;;22.20;89.40;;;;;;5115388;28;19912;-46
2022/10/09 01:29:51;;;;;;;;;;;22.20;89.40;;;;;;5114692;27;20362;-50
2022/10/09 01:32:19;;;;;;;;;;;22.20;89.40;;;;;;5113865;27;20374;-46
2022/10/09 01:34:45;;;;;;;;;;;22.20;89.40;;;;;;5096341;28;19912;-45
2022/10/09 01:37:12;;;;;;;;;;;22.20;89.40;;;;;;5118646;27;19934;-47
2022/10/09 01:39:38;;;;;;;;;;;22.20;89.40;;;;;;5114512;27;20358;-47
2022/10/09 01:42:04;;;;;;;;;;;22.20;89.40;;;;;;5114170;27;19966;-47
2022/10/09 01:44:31;;;;;;;;;;;22.20;89.40;;;;;;5114485;27;19919;-48
2022/10/09 01:46:57;;;;;;;;;;;22.10;89.40;;;;;;5115193;28;19907;-50
2022/10/09 01:49:25;;;;;;;;;;;22.20;89.50;;;;;;5113976;27;19915;-46
2022/10/09 01:52:09;;;;;;;;;;;22.10;89.40;;;;;;5113780;27;19911;-48
2022/10/09 01:54:55;;;;;;;;;;;22.10;89.50;;;;;;5114213;28;19964;-48
2022/10/09 01:57:28;;;;;;;;;;;22.10;89.50;;;;;;5114286;27;19957;-45
2022/10/09 01:59:55;;;;;;;;;;;22.10;89.60;;;;;;5113021;28;19911;-47
2022/10/09 02:02:21;;;;;;;;;;;22.10;89.70;;;;;;5118369;27;19918;-45
2022/10/09 02:04:47;;;;;;;;;;;22.10;89.70;;;;;;5113992;28;19911;-48
2022/10/09 02:07:13;;;;;;;;;;;22.10;89.80;;;;;;5116794;27;19928;-52
2022/10/09 02:09:39;;;;;;;;;;;22.10;89.80;;;;;;5125938;27;19919;-47
2022/10/09 02:12:08;;;;;;;;;;;22.10;89.80;;;;;;5114323;28;19914;-48
2022/10/09 02:14:34;;;;;;;;;;;22.10;90.00;;;;;;5114617;28;19908;-46
2022/10/09 02:17:11;;;;;;;;;;;22.10;90.00;;;;;;5095895;28;19918;-46
2022/10/09 02:19:42;;;;;;;;;;;22.10;90.00;;;;;;5113939;28;19911;-46
2022/10/09 02:22:16;;;;;;;;;;;22.10;90.00;;;;;;5113302;28;20290;-46
2022/10/09 02:24:42;;;;;;;;;;;22.10;89.90;;;;;;5113711;28;20353;-60
2022/10/09 02:27:08;;;;;;;;;;;22.10;89.80;;;;;;5113542;28;19920;-47
2022/10/09 02:29:34;;;;;;;;;;;22.10;89.80;;;;;;5113806;28;19912;-47
2022/10/09 02:31:59;;;;;;;;;;;22.20;89.80;;;;;;5113102;28;20255;-46
2022/10/09 02:34:25;;;;;;;;;;;22.10;89.70;;;;;;5113889;28;20399;-46
2022/10/09 02:36:50;;;;;;;;;;;22.10;89.70;;;;;;5115842;28;19912;-49
2022/10/09 02:39:16;;;;;;;;;;;22.10;89.80;;;;;;5115358;28;19908;-46
2022/10/09 02:41:42;;;;;;;;;;;22.10;89.70;;;;;;5113611;28;19912;-45
2022/10/09 02:44:07;;;;;;;;;;;22.10;89.70;;;;;;5113627;28;20372;-46
2022/10/09 02:46:33;;;;;;;;;;;22.10;89.70;;;;;;5114452;28;19914;-46
2022/10/09 02:48:59;;;;;;;;;;;22.10;89.70;;;;;;5113533;28;20362;-47
2022/10/09 02:51:24;;;;;;;;;;;22.10;89.70;;;;;;5113454;28;19919;-48
2022/10/09 02:53:51;;;;;;;;;;;22.10;90.10;;;;;;5112668;28;19912;-47
2022/10/09 02:56:16;;;;;;;;;;;22.10;89.70;;;;;;5113377;28;19912;-46
2022/10/09 02:58:42;;;;;;;;;;;22.10;89.70;;;;;;5112684;28;19918;-47
2022/10/09 03:01:07;;;;;;;;;;;22.10;89.70;;;;;;5113627;28;19954;-47
2022/10/09 03:03:33;;;;;;;;;;;22.10;89.80;;;;;;5119403;28;20007;-47
2022/10/09 03:06:15;;;;;;;;;;;22.10;89.80;;;;;;5094760;28;19924;-45
2022/10/09 03:08:42;;;;;;;;;;;22.10;89.80;;;;;;5115789;28;19920;-45
2022/10/09 03:11:08;;;;;;;;;;;22.10;89.80;;;;;;5112425;28;19912;-50
2022/10/09 03:13:34;;;;;;;;;;;22.10;89.90;;;;;;5125132;28;19991;-47
2022/10/09 03:16:03;;;;;;;;;;;22.10;89.80;;;;;;5113082;28;19947;-46
2022/10/09 03:18:29;;;;;;;;;;;22.10;89.90;;;;;;5111000;28;19981;-48
2022/10/09 03:20:55;;;;;;;;;;;22.10;89.90;;;;;;5112239;28;20331;-46
2022/10/09 03:23:20;;;;;;;;;;;22.10;90.00;;;;;;5116672;28;20377;-49
2022/10/09 03:25:53;;;;;;;;;;;22.10;90.00;;;;;;5114961;28;19919;-49
2022/10/09 03:28:19;;;;;;;;;;;22.10;90.10;;;;;;5113345;28;19949;-48
2022/10/09 03:30:44;;;;;;;;;;;22.00;90.00;;;;;;5114046;28;19994;-50
2022/10/09 03:33:10;;;;;;;;;;;22.10;90.00;;;;;;5096124;28;20369;-47
2022/10/09 03:35:35;;;;;;;;;;;22.10;90.00;;;;;;5113535;28;20289;-47
2022/10/09 03:38:01;;;;;;;;;;;22.10;90.00;;;;;;5114087;28;19912;-47
2022/10/09 03:40:26;;;;;;;;;;;22.10;90.00;;;;;;5115383;28;19912;-46
2022/10/09 03:42:52;;;;;;;;;;;22.10;89.80;;;;;;5113789;28;19919;-48
2022/10/09 03:45:17;;;;;;;;;;;22.10;89.80;;;;;;5115509;27;19919;-58
2022/10/09 03:47:42;;;;;;;;;;;22.10;89.80;;;;;;5116490;27;19952;-48
2022/10/09 03:50:08;;;;;;;;;;;22.10;89.80;;;;;;5117107;28;19911;-46
2022/10/09 03:52:35;;;;;;;;;;;22.10;89.80;;;;;;5116895;27;19911;-47
2022/10/09 03:55:00;;;;;;;;;;;22.10;89.80;;;;;;5120460;27;19995;-48
2022/10/09 03:57:26;;;;;;;;;;;22.10;89.80;;;;;;5116741;28;19946;-49
2022/10/09 03:59:51;;;;;;;;;;;22.10;89.80;;;;;;5096575;28;19994;-46
2022/10/09 04:02:17;;;;;;;;;;;22.10;89.80;;;;;;5123586;27;19919;-48
2022/10/09 04:04:42;;;;;;;;;;;22.00;89.80;;;;;;5117934;27;19990;-48
2022/10/09 04:07:08;;;;;;;;;;;22.10;89.80;;;;;;5119940;27;20018;-51
2022/10/09 04:09:33;;;;;;;;;;;22.10;89.80;;;;;;5117643;27;19934;-53
2022/10/09 04:11:59;;;;;;;;;;;22.00;89.70;;;;;;5116936;28;19911;-51
2022/10/09 04:14:24;;;;;;;;;;;22.10;89.90;;;;;;5115390;27;20289;-48
2022/10/09 04:16:49;;;;;;;;;;;22.10;89.90;;;;;;5117010;27;19911;-47
2022/10/09 04:19:15;;;;;;;;;;;22.10;89.90;;;;;;5116018;27;19942;-47
2022/10/09 04:21:41;;;;;;;;;;;22.10;89.90;;;;;;5113606;27;19920;-54
2022/10/09 04:24:07;;;;;;;;;;;22.10;89.90;;;;;;5116463;28;19908;-47
2022/10/09 04:26:33;;;;;;;;;;;22.00;89.80;;;;;;5116624;28;19911;-48
2022/10/09 04:28:59;;;;;;;;;;;22.10;89.80;;;;;;5116548;28;19920;-48
2022/10/09 04:31:24;;;;;;;;;;;22.10;89.80;;;;;;5116240;28;19930;-48
2022/10/09 04:33:53;;;;;;;;;;;22.00;89.80;;;;;;5115263;28;19907;-48
2022/10/09 04:36:18;;;;;;;;;;;22.10;89.90;;;;;;5116382;28;20003;-49
2022/10/09 04:38:43;;;;;;;;;;;22.00;89.80;;;;;;5114325;28;19951;-47
2022/10/09 04:41:09;;;;;;;;;;;22.00;89.90;;;;;;5116011;28;19915;-48
2022/10/09 04:43:35;;;;;;;;;;;22.00;89.90;;;;;;5116041;28;20053;-49
2022/10/09 04:46:02;;;;;;;;;;;22.00;89.90;;;;;;5116195;28;19953;-47
2022/10/09 04:48:28;;;;;;;;;;;22.00;89.90;;;;;;5116219;28;20022;-47
2022/10/09 04:50:53;;;;;;;;;;;22.00;89.90;;;;;;5116212;28;20015;-47
2022/10/09 04:53:19;;;;;;;;;;;22.00;89.80;;;;;;5113570;28;19957;-48
2022/10/09 04:55:44;;;;;;;;;;;22.00;89.80;;;;;;5116053;28;19907;-52
2022/10/09 04:58:10;;;;;;;;;;;22.00;89.80;;;;;;5116006;28;19908;-47
2022/10/09 05:00:43;;;;;;;;;;;22.00;89.80;;;;;;5097351;28;19912;-48
2022/10/09 05:03:09;;;;;;;;;;;22.00;89.80;;;;;;5128919;27;19962;-47
2022/10/09 05:05:34;;;;;;;;;;;22.00;89.80;;;;;;5136210;27;19919;-52
2022/10/09 05:08:00;;;;;;;;;;;22.00;89.80;;;;;;5117438;27;19920;-51
2022/10/09 05:10:25;;;;;;;;;;;22.00;88.30;;;;;;5114952;27;19912;-48
2022/10/09 05:12:51;;;;;;;;;;;22.00;89.20;;;;;;5115423;28;19912;-47
2022/10/09 05:15:17;;;;;;;;;;;22.00;89.70;;;;;;5115209;27;19918;-48
2022/10/09 05:17:43;;;;;;;;;;;22.00;89.90;;;;;;5115318;28;20335;-47
2022/10/09 05:20:08;;;;;;;;;;;22.00;89.90;;;;;;5114930;27;20030;-51
2022/10/09 05:22:34;;;;;;;;;;;22.10;89.90;;;;;;5115715;28;20272;-48
2022/10/09 05:24:59;;;;;;;;;;;22.00;89.80;;;;;;5114393;27;19911;-48
2022/10/09 05:27:24;;;;;;;;;;;22.10;89.90;;;;;;5115073;28;20278;-50
2022/10/09 05:29:50;;;;;;;;;;;22.00;89.80;;;;;;5114541;27;19916;-46
2022/10/09 05:32:15;;;;;;;;;;;22.00;89.80;;;;;;5115717;28;19908;-48
2022/10/09 05:34:41;;;;;;;;;;;22.10;89.80;;;;;;5115610;27;20389;-51
2022/10/09 05:37:06;;;;;;;;;;;22.00;89.80;;;;;;5115094;28;20304;-49
2022/10/09 05:39:34;;;;;;;;;;;22.00;89.70;;;;;;5114550;28;19922;-48
2022/10/09 05:42:00;;;;;;;;;;;22.10;89.80;;;;;;5115538;28;20362;-48
2022/10/09 05:44:25;;;;;;;;;;;22.00;89.70;;;;;;5116380;27;19939;-50
2022/10/09 05:46:51;;;;;;;;;;;22.00;89.70;;;;;;5114832;28;19912;-49
2022/10/09 05:49:16;;;;;;;;;;;22.00;89.60;;;;;;5096343;28;19916;-50
2022/10/09 05:51:42;;;;;;;;;;;22.00;89.60;;;;;;5115047;28;20361;-48
2022/10/09 05:54:08;;;;;;;;;;;22.00;89.60;;;;;;5096286;28;19915;-58
2022/10/09 05:56:35;;;;;;;;;;;22.00;89.50;;;;;;5115486;28;19908;-49
2022/10/09 05:59:05;;;;;;;;;;;22.00;89.50;;;;;;5113918;28;20011;-47
2022/10/09 06:01:31;;;;;;;;;;;22.00;89.60;;;;;;5116571;27;19947;-50
2022/10/09 06:03:58;;;;;;;;;;;22.00;89.50;;;;;;5135008;27;20262;-47
2022/10/09 06:06:26;;;;;;;;;;;22.00;89.50;;;;;;5121866;27;20395;-51
2022/10/09 06:08:51;;;;;;;;;;;22.00;89.50;;;;;;5113286;28;19919;-52
2022/10/09 06:11:27;;;;;;;;;;;22.00;89.50;;;;;;5114308;28;20282;-49
2022/10/09 06:13:52;;;;;;;;;;;22.00;89.50;;;;;;5114284;28;20090;-47
2022/10/09 06:16:18;;;;;;;;;;;22.00;89.60;;;;;;5116058;27;19961;-48
2022/10/09 06:18:47;;;;;;;;;;;22.00;89.60;;;;;;5113317;28;19912;-50
2022/10/09 06:21:13;;;;;;;;;;;22.00;89.70;;;;;;5114632;28;20002;-49
2022/10/09 06:23:38;;;;;;;;;;;22.00;89.80;;;;;;5095960;28;19951;-50
2022/10/09 06:26:05;;;;;;;;;;;22.00;89.70;;;;;;5114569;28;19943;-50
2022/10/09 06:28:31;;;;;;;;;;;22.00;89.80;;;;;;5113620;28;19920;-48
2022/10/09 06:31:01;;;;;;;;;;;22.00;89.90;;;;;;5114525;28;19907;-50
2022/10/09 06:33:30;;;;;;;;;;;22.00;89.80;;;;;;5115704;28;19919;-52
2022/10/09 06:36:00;;;;;;;;;;;22.00;89.70;;;;;;5113608;28;19934;-49
2022/10/09 06:38:25;;;;;;;;;;;22.00;89.70;;;;;;5113725;28;19912;-50
2022/10/09 06:40:51;;;;;;;;;;;22.10;89.70;;;;;;5114335;28;19915;-50
2022/10/09 06:43:16;;;;;;;;;;;22.10;89.60;;;;;;5114301;28;19912;-47
2022/10/09 06:45:42;;;;;;;;;;;22.10;89.60;;;;;;5096319;28;20339;-51
2022/10/09 06:48:07;;;;;;;;;;;22.10;89.60;;;;;;5113577;28;19987;-52
2022/10/09 06:50:34;;;;;;;;;;;22.10;89.60;;;;;;5112986;28;19911;-49
2022/10/09 06:52:59;;;;;;;;;;;22.10;89.60;;;;;;5113518;28;19912;-48
2022/10/09 06:55:24;;;;;;;;;;;22.10;89.70;;;;;;5112704;28;19923;-48
2022/10/09 06:57:50;;;;;;;;;;;22.10;89.60;;;;;;5116982;28;19912;-48
2022/10/09 07:00:15;;;;;;;;;;;22.10;89.60;;;;;;5114168;28;19908;-49
2022/10/09 07:02:41;;;;;;;;;;;22.10;89.70;;;;;;5113048;28;20433;-47
2022/10/09 07:05:07;;;;;;;;;;;22.10;89.70;;;;;;5114579;28;20262;-51
2022/10/09 07:07:32;;;;;;;;;;;22.10;89.70;;;;;;5114333;28;19920;-47
2022/10/09 07:09:58;;;;;;;;;;;22.10;89.70;;;;;;5111319;28;19921;-50
2022/10/09 07:12:23;;;;;;;;;;;22.10;89.70;;;;;;5112999;28;19908;-47
2022/10/09 07:14:48;;;;;;;;;;;22.10;89.60;;;;;;5124576;28;19961;-50
2022/10/09 07:17:14;;;;;;;;;;;22.00;89.70;;;;;;5096526;28;20414;-47
2022/10/09 07:19:39;;;;;;;;;;;22.10;89.80;;;;;;5119408;27;20020;-50
2022/10/09 07:22:10;;;;;;;;;;;22.10;89.70;;;;;;5116744;28;19904;-47
2022/10/09 07:24:35;;;;;;;;;;;22.10;89.70;;;;;;5116718;28;19907;-48
2022/10/09 07:27:01;;;;;;;;;;;22.00;89.90;;;;;;5116861;28;20299;-51
2022/10/09 07:29:26;;;;;;;;;;;22.10;90.00;;;;;;5116706;28;19904;-48
2022/10/09 07:31:52;;;;;;;;;;;22.00;89.90;;;;;;5116655;28;20339;-51
2022/10/09 07:34:17;;;;;;;;;;;22.00;89.80;;;;;;5116925;28;19904;-49
2022/10/09 07:36:43;;;;;;;;;;;22.10;89.80;;;;;;5116596;28;20048;-51
2022/10/09 07:39:08;;;;;;;;;;;22.10;89.80;;;;;;5116431;28;20354;-48
2022/10/09 07:41:34;;;;;;;;;;;22.10;89.80;;;;;;5115485;28;19904;-47
2022/10/09 07:44:00;;;;;;;;;;;22.10;89.90;;;;;;5116481;28;19910;-50
2022/10/09 07:46:26;;;;;;;;;;;22.10;89.80;;;;;;5116547;28;19911;-48
2022/10/09 07:48:51;;;;;;;;;;;22.10;89.80;;;;;;5116004;28;19915;-49
2022/10/09 07:51:22;;;;;;;;;;;22.10;89.70;;;;;;5117054;28;19903;-51
2022/10/09 07:53:47;;;;;;;;;;;22.10;89.60;;;;;;5120569;27;19904;-49
2022/10/09 07:56:20;;;;;;;;;;;22.10;89.70;;;;;;5116361;28;19908;-48
2022/10/09 07:58:49;;;;;;;;;;;22.10;89.70;;;;;;5114382;27;19931;-51
2022/10/09 08:01:15;;;;;;;;;;;22.10;89.70;;;;;;5116529;27;19912;-52
2022/10/09 08:03:40;;;;;;;;;;;22.10;89.70;;;;;;5111626;27;20614;-50
2022/10/09 08:06:06;;;;;;;;;;;22.10;89.80;;;;;;5115405;28;20355;-51
2022/10/09 08:08:32;;;;;;;;;;;22.10;90.00;;;;;;5115585;28;19920;-51
2022/10/09 08:10:57;;;;;;;;;;;22.10;90.00;;;;;;5115759;28;20351;-48
2022/10/09 08:13:22;;;;;;;;;;;22.10;90.00;;;;;;5115530;28;19908;-48
2022/10/09 08:15:48;;;;;;;;;;;22.10;90.00;;;;;;5115202;28;20266;-49
2022/10/09 08:18:14;;;;;;;;;;;22.10;89.80;;;;;;5115772;28;20002;-49
2022/10/09 08:20:39;;;;;;;;;;;22.10;89.80;;;;;;5114901;28;20355;-60
2022/10/09 08:23:05;;;;;;;;;;;22.10;89.70;;;;;;5117033;27;19992;-51
2022/10/09 08:25:37;;;;;;;;;;;22.10;89.20;;;;;;5115232;27;19912;-49
2022/10/09 08:28:03;;;;;;;;;;;22.10;89.00;;;;;;5119530;27;19920;-51
2022/10/09 08:30:28;;;;;;;;;;;22.10;89.00;;;;;;5116084;28;20086;-47
2022/10/09 08:32:54;;;;;;;;;;;22.00;88.60;;;;;;5118584;27;19907;-47
2022/10/09 08:35:19;;;;;;;;;;;22.00;88.70;;;;;;5116516;28;20346;-47
2022/10/09 08:37:45;;;;;;;;;;;22.00;88.70;;;;;;5116144;28;19904;-48
2022/10/09 08:40:24;;;;;;;;;;;22.00;88.50;;;;;;5116252;27;19970;-48
2022/10/09 08:42:58;;;;;;;;;;;22.00;88.60;;;;;;5116200;27;20421;-48
2022/10/09 08:45:24;;;;;;;;;;;22.00;88.50;;;;;;5117022;27;20003;-50
2022/10/09 08:47:51;;;;;;;;;;;22.00;88.50;;;;;;5102717;28;19999;-48
2022/10/09 08:50:18;;;;;;;;;;;22.00;88.50;;;;;;5119156;27;19911;-52
2022/10/09 08:52:47;;;;;;;;;;;22.00;88.40;;;;;;5115672;27;19920;-48
2022/10/09 08:55:22;;;;;;;;;;;21.90;88.10;;;;;;5116452;27;19912;-48
2022/10/09 08:57:50;;;;;;;;;;;22.00;88.00;;;;;;5114589;27;19912;-46
2022/10/09 09:00:17;;;;;;;;;;;22.00;87.40;;;;;;5115106;27;19912;-50
2022/10/09 09:02:51;;;;;;;;;;;22.00;87.50;;;;;;5125290;27;19972;-47
2022/10/09 09:05:37;;;;;;;;;;;22.00;87.70;;;;;;5116253;27;19970;-47
2022/10/09 09:08:18;;;;;;;;;;;22.00;88.00;;;;;;5100992;28;19916;-47
2022/10/09 09:11:02;;;;;;;;;;;22.00;88.50;;;;;;5117548;27;20011;-55
2022/10/09 09:13:30;;;;;;;;;;;22.10;88.90;;;;;;5114936;28;19999;-47
2022/10/09 09:16:07;;;;;;;;;;;22.10;88.80;;;;;;5113982;28;19965;-51
2022/10/09 09:18:47;;;;;;;;;;;22.10;88.60;;;;;;5112249;27;19916;-46
2022/10/09 09:21:19;;;;;;;;;;;22.10;88.80;;;;;;5095999;28;19912;-45
2022/10/09 09:23:45;;;;;;;;;;;22.10;88.50;;;;;;5113049;28;19919;-56
2022/10/09 09:26:14;;;;;;;;;;;22.10;89.20;;;;;;5117706;27;19918;-48
2022/10/09 09:28:40;;;;;;;;;;;22.20;89.60;;;;;;5115378;28;19955;-49
2022/10/09 09:31:36;;;;;;;;;;;22.10;89.60;;;;;;5113869;27;19916;-48
2022/10/09 09:34:17;;;;;;;;;;;22.10;89.40;;;;;;5093807;28;19912;-46
2022/10/09 09:36:48;;;;;;;;;;;22.10;89.50;;;;;;5114709;28;19930;-45
2022/10/09 09:39:13;;;;;;;;;;;22.10;89.50;;;;;;5114608;28;19930;-47
2022/10/09 09:41:39;;;;;;;;;;;22.10;89.40;;;;;;5114867;28;20358;-48
2022/10/09 09:44:06;;;;;;;;;;;22.10;89.40;;;;;;5114757;28;19939;-46
2022/10/09 09:46:32;;;;;;;;;;;22.10;89.40;;;;;;5114436;28;19960;-46
2022/10/09 09:48:58;;;;;;;;;;;22.00;89.40;;;;;;5096361;28;19916;-46
2022/10/09 09:51:25;;;;;;;;;;;22.00;89.30;;;;;;5114850;28;20382;-46
2022/10/09 09:53:55;;;;;;;;;;;22.00;89.30;;;;;;5096532;28;19915;-46
2022/10/09 09:56:31;;;;;;;;;;;22.00;89.40;;;;;;5096727;28;19907;-48
2022/10/09 09:58:56;;;;;;;;;;;22.00;89.40;;;;;;5114605;28;19915;-47
2022/10/09 10:01:23;;;;;;;;;;;22.00;89.30;;;;;;5096480;28;19912;-48
2022/10/09 10:03:50;;;;;;;;;;;22.00;89.30;;;;;;5133792;27;19918;-47
2022/10/09 10:06:19;;;;;;;;;;;22.00;89.20;;;;;;5135299;27;19926;-47
2022/10/09 10:08:45;;;;;;;;;;;22.00;89.10;;;;;;5116759;27;20372;-51
2022/10/09 10:11:16;;;;;;;;;;;22.10;89.10;;;;;;5134726;27;20123;-50
2022/10/09 10:13:45;;;;;;;;;;;22.10;89.10;;;;;;5134759;27;20328;-53
2022/10/09 10:16:19;;;;;;;;;;;22.10;89.00;;;;;;5116660;27;19914;-47
2022/10/09 10:18:44;;;;;;;;;;;22.10;89.10;;;;;;5134810;27;19907;-48
2022/10/09 10:21:14;;;;;;;;;;;22.10;89.00;;;;;;5134692;27;20006;-46
2022/10/09 10:23:41;;;;;;;;;;;22.10;89.00;;;;;;5134860;27;19943;-46
2022/10/09 10:26:10;;;;;;;;;;;22.10;89.00;;;;;;5134874;27;19908;-47
2022/10/09 10:28:59;;;;;;;;;;;22.10;89.00;;;;;;5134792;27;20392;-47
2022/10/09 10:31:32;;;;;;;;;;;22.10;89.00;;;;;;5123723;28;19964;-46
2022/10/09 10:33:59;;;;;;;;;;;22.00;88.90;;;;;;5134948;28;19916;-46
2022/10/09 10:36:26;;;;;;;;;;;22.10;89.00;;;;;;5116834;28;19991;-47
2022/10/09 10:38:54;;;;;;;;;;;22.10;89.00;;;;;;5134904;28;20310;-51
2022/10/09 10:41:35;;;;;;;;;;;22.10;89.00;;;;;;5134750;28;19908;-48
2022/10/09 10:44:29;;;;;;;;;;;22.00;89.00;;;;;;5134434;28;19907;-47
2022/10/09 10:47:05;;;;;;;;;;;22.00;89.00;;;;;;5116732;28;19914;-47
2022/10/09 10:49:31;;;;;;;;;;;22.00;89.00;;;;;;5134868;28;19916;-50
2022/10/09 10:51:56;;;;;;;;;;;22.00;89.10;;;;;;5136162;27;20406;-49
2022/10/09 10:54:36;;;;;;;;;;;22.00;89.00;;;;;;5139160;27;19907;-49
2022/10/09 10:57:11;;;;;;;;;;;22.00;89.10;;;;;;5138877;27;19915;-47
2022/10/09 10:59:38;;;;;;;;;;;21.90;89.10;;;;;;5138869;27;20014;-49
2022/10/09 11:02:16;;;;;;;;;;;22.00;89.00;;;;;;5134896;27;20021;-46
2022/10/09 11:04:46;;;;;;;;;;;22.00;88.90;;;;;;5118087;28;19907;-49
2022/10/09 11:07:15;;;;;;;;;;;22.10;88.80;;;;;;5117423;28;19927;-48
2022/10/09 11:09:40;;;;;;;;;;;22.10;88.70;;;;;;5118114;28;20052;-45
2022/10/09 11:12:12;;;;;;;;;;;22.10;88.70;;;;;;5118027;28;19947;-47
2022/10/09 11:15:10;;;;;;;;;;;22.00;88.60;;;;;;5117845;28;19908;-46
2022/10/09 11:17:42;;;;;;;;;;;22.10;88.70;;;;;;5082980;28;19912;-45
2022/10/09 11:20:10;;;;;;;;;;;22.00;88.60;;;;;;5117873;28;19961;-47
2022/10/09 11:22:42;;;;;;;;;;;22.00;88.60;;;;;;5117793;28;19912;-46
2022/10/09 11:25:16;;;;;;;;;;;22.00;88.60;;;;;;5117701;28;20350;-48
2022/10/09 11:27:48;;;;;;;;;;;22.00;88.70;;;;;;5117719;28;19911;-46
2022/10/09 11:30:15;;;;;;;;;;;22.10;88.70;;;;;;5099590;28;20378;-46
2022/10/09 11:32:56;;;;;;;;;;;22.10;88.70;;;;;;5117670;28;19908;-48
2022/10/09 11:35:22;;;;;;;;;;;22.10;88.70;;;;;;5117566;28;20350;-48
2022/10/09 11:38:02;;;;;;;;;;;22.10;88.70;;;;;;5117188;28;20354;-46
2022/10/09 11:40:30;;;;;;;;;;;22.10;88.70;;;;;;5117438;28;19907;-45
2022/10/09 11:43:14;;;;;;;;;;;22.00;88.70;;;;;;5117320;28;19908;-47
2022/10/09 11:45:49;;;;;;;;;;;22.00;88.70;;;;;;5116989;28;20277;-46
2022/10/09 11:48:25;;;;;;;;;;;22.00;88.70;;;;;;5098833;28;19912;-50
2022/10/09 11:51:07;;;;;;;;;;;22.00;88.70;;;;;;5117060;28;19912;-46
2022/10/09 11:53:35;;;;;;;;;;;22.00;88.80;;;;;;5116806;28;20364;-46
2022/10/09 11:56:18;;;;;;;;;;;22.00;88.80;;;;;;5116873;28;19953;-49
2022/10/09 11:58:54;;;;;;;;;;;22.00;88.80;;;;;;5116988;28;19911;-46
2022/10/09 12:01:24;;;;;;;;;;;22.00;88.90;;;;;;5098726;28;20300;-45
2022/10/09 12:04:06;;;;;;;;;;;22.00;88.80;;;;;;5116122;27;20357;-45
2022/10/09 12:06:43;;;;;;;;;;;22.00;88.80;;;;;;5137305;27;19927;-48
2022/10/09 12:09:18;;;;;;;;;;;22.00;88.90;;;;;;5137380;27;20377;-46
2022/10/09 12:11:52;;;;;;;;;;;22.00;88.80;;;;;;5137057;27;19912;-45
2022/10/09 12:14:23;;;;;;;;;;;22.00;88.80;;;;;;5137468;27;19907;-46
2022/10/09 12:16:48;;;;;;;;;;;22.00;88.80;;;;;;5137299;27;20357;-47
2022/10/09 12:19:26;;;;;;;;;;;22.00;88.80;;;;;;5136953;27;19918;-51
2022/10/09 12:21:57;;;;;;;;;;;21.90;88.70;;;;;;5137164;27;19908;-48
2022/10/09 12:24:24;;;;;;;;;;;22.00;88.70;;;;;;5136980;27;19960;-49
2022/10/09 12:26:52;;;;;;;;;;;22.00;88.70;;;;;;5136734;27;19945;-50
2022/10/09 12:29:23;;;;;;;;;;;22.00;88.70;;;;;;5136671;27;19911;-50
2022/10/09 12:31:49;;;;;;;;;;;21.90;88.70;;;;;;5118711;27;19918;-47
2022/10/09 12:34:26;;;;;;;;;;;22.00;88.70;;;;;;5136703;27;19907;-47
2022/10/09 12:37:01;;;;;;;;;;;22.00;88.70;;;;;;5136298;27;19907;-49
2022/10/09 12:39:27;;;;;;;;;;;22.00;88.70;;;;;;5136493;27;19914;-49
2022/10/09 12:41:54;;;;;;;;;;;22.00;88.60;;;;;;5136694;27;19912;-51
2022/10/09 12:44:29;;;;;;;;;;;22.00;88.60;;;;;;5136663;27;19912;-46
2022/10/09 12:46:58;;;;;;;;;;;22.00;88.60;;;;;;5136564;27;19914;-48
2022/10/09 12:49:24;;;;;;;;;;;22.00;88.60;;;;;;5136474;27;19911;-48
2022/10/09 12:51:51;;;;;;;;;;;22.00;88.60;;;;;;5136231;27;20025;-47
2022/10/09 12:54:17;;;;;;;;;;;22.00;88.60;;;;;;5136246;27;19961;-46
2022/10/09 12:56:42;;;;;;;;;;;22.00;88.60;;;;;;5136449;27;20339;-50
2022/10/09 12:59:09;;;;;;;;;;;22.00;88.70;;;;;;5136546;27;20362;-47
2022/10/09 13:01:35;;;;;;;;;;;22.00;88.60;;;;;;5136381;27;20444;-55
2022/10/09 13:04:03;;;;;;;;;;;22.00;88.60;;;;;;5116039;28;19907;-45
2022/10/09 13:06:31;;;;;;;;;;;21.90;88.50;;;;;;5097048;28;19919;-46
2022/10/09 13:08:58;;;;;;;;;;;22.00;88.60;;;;;;5115443;28;19912;-46
2022/10/09 13:11:32;;;;;;;;;;;21.90;88.50;;;;;;5115370;28;20286;-46
2022/10/09 13:13:57;;;;;;;;;;;22.00;88.50;;;;;;5115738;28;19980;-51
2022/10/09 13:16:23;;;;;;;;;;;22.00;88.50;;;;;;5115098;28;20264;-50
2022/10/09 13:18:55;;;;;;;;;;;22.00;88.50;;;;;;5115473;28;19912;-48
2022/10/09 13:21:23;;;;;;;;;;;22.00;88.40;;;;;;5115150;28;19908;-46
2022/10/09 13:23:49;;;;;;;;;;;22.00;88.40;;;;;;5115524;28;20033;-46
2022/10/09 13:26:21;;;;;;;;;;;22.00;88.40;;;;;;5115398;28;19965;-46
2022/10/09 13:28:46;;;;;;;;;;;22.00;88.40;;;;;;5115472;28;19912;-45
2022/10/09 13:31:12;;;;;;;;;;;22.00;88.40;;;;;;5115379;28;20259;-47
2022/10/09 13:33:37;;;;;;;;;;;22.00;88.40;;;;;;5115170;28;19908;-47
2022/10/09 13:36:03;;;;;;;;;;;22.00;88.40;;;;;;5115590;28;19934;-47
2022/10/09 13:38:28;;;;;;;;;;;22.00;88.30;;;;;;5115217;28;19918;-48
2022/10/09 13:40:55;;;;;;;;;;;22.00;88.40;;;;;;5114978;28;19914;-47
2022/10/09 13:43:21;;;;;;;;;;;22.00;88.90;;;;;;5115184;28;19914;-46
2022/10/09 13:45:47;;;;;;;;;;;21.90;88.30;;;;;;5115366;28;19933;-48
2022/10/09 13:48:12;;;;;;;;;;;22.00;88.40;;;;;;5114826;28;19912;-46
2022/10/09 13:50:38;;;;;;;;;;;21.90;88.30;;;;;;5114933;28;20420;-46
2022/10/09 13:53:03;;;;;;;;;;;21.90;88.40;;;;;;5114572;28;20345;-48
2022/10/09 13:55:29;;;;;;;;;;;21.90;88.30;;;;;;5114632;28;19918;-49
2022/10/09 13:57:55;;;;;;;;;;;21.90;88.40;;;;;;5114710;28;20396;-51
2022/10/09 14:00:21;;;;;;;;;;;21.90;88.30;;;;;;5114794;28;19907;-48
2022/10/09 14:02:46;;;;;;;;;;;21.90;88.30;;;;;;5124737;27;19915;-47
2022/10/09 14:05:11;;;;;;;;;;;21.90;88.40;;;;;;5134908;27;19994;-48
2022/10/09 14:07:37;;;;;;;;;;;21.90;88.40;;;;;;5116573;27;19956;-47
2022/10/09 14:10:03;;;;;;;;;;;21.90;88.40;;;;;;5135308;27;19912;-47
2022/10/09 14:12:28;;;;;;;;;;;21.90;88.30;;;;;;5134564;27;19929;-46
2022/10/09 14:14:54;;;;;;;;;;;21.90;88.30;;;;;;5116381;27;19934;-49
2022/10/09 14:17:19;;;;;;;;;;;21.90;88.30;;;;;;5134579;27;20300;-46
2022/10/09 14:19:45;;;;;;;;;;;21.90;88.30;;;;;;5135065;27;19907;-46
2022/10/09 14:22:12;;;;;;;;;;;21.90;88.30;;;;;;5135160;27;19932;-48